createdAt,value
2018-07-20T00:00:05.314Z,75.29
2018-07-20T00:01:05.327Z,76.54
2018-07-20T00:02:05.362Z,76.25
2018-07-20T00:03:05.381Z,77.31
2018-07-20T00:04:05.383Z,77.65
2018-07-20T00:05:05.410Z,78.03
2018-07-20T00:06:05.421Z,78.03
2018-07-20T00:07:05.442Z,78.80
2018-07-20T00:08:05.486Z,78.89
2018-07-20T00:09:05.486Z,78.55
2018-07-20T00:10:05.516Z,76.54
2018-07-20T00:11:05.543Z,75.96
2018-07-20T00:12:05.544Z,76.15
2018-07-20T00:13:05.590Z,76.44
2018-07-20T00:14:05.604Z,76.82
2018-07-20T00:15:05.607Z,76.64
2018-07-20T00:16:05.625Z,77.40
2018-07-20T00:17:05.655Z,77.40
2018-07-20T00:18:05.668Z,78.55
2018-07-20T00:19:05.685Z,78.03
2018-07-20T00:20:05.715Z,79.37
2018-07-20T00:21:05.723Z,79.62
2018-07-20T00:22:05.769Z,80.38
2018-07-20T00:23:05.775Z,80.87
2018-07-20T00:24:05.780Z,81.34
2018-07-20T00:25:05.801Z,81.05
2018-07-20T00:26:05.830Z,80.87
2018-07-20T00:27:05.849Z,80.58
2018-07-20T00:28:05.867Z,79.47
2018-07-20T00:29:05.884Z,78.89
2018-07-20T00:30:05.899Z,78.42
2018-07-20T00:31:05.931Z,78.61
2018-07-20T00:32:05.944Z,79.08
2018-07-20T00:33:05.968Z,78.42
2018-07-20T00:34:05.986Z,79.18
2018-07-20T00:35:06.001Z,79.62
2018-07-20T00:36:06.016Z,79.57
2018-07-20T00:37:06.041Z,78.70
2018-07-20T00:38:06.060Z,78.99
2018-07-20T00:39:06.080Z,78.42
2018-07-20T00:40:06.100Z,78.42
2018-07-20T00:41:06.114Z,77.21
2018-07-20T00:42:06.144Z,76.73
2018-07-20T00:43:06.157Z,77.31
2018-07-20T00:44:06.180Z,78.36
2018-07-20T00:45:06.206Z,77.59
2018-07-20T00:46:06.216Z,78.03
2018-07-20T00:47:06.247Z,79.43
2018-07-20T00:48:06.267Z,79.72
2018-07-20T00:49:06.275Z,80.58
2018-07-20T00:50:06.294Z,80.29
2018-07-20T00:51:06.312Z,79.91
2018-07-20T00:52:06.337Z,80.77
2018-07-20T00:53:06.353Z,81.25
2018-07-20T00:54:06.371Z,81.25
2018-07-20T00:55:06.396Z,80.58
2018-07-20T00:56:06.410Z,80.38
2018-07-20T00:57:06.438Z,80.38
2018-07-20T00:58:06.466Z,80.48
2018-07-20T00:59:06.475Z,81.05
2018-07-20T01:00:06.493Z,81.68
2018-07-20T01:01:06.512Z,81.68
2018-07-20T01:02:06.530Z,81.78
2018-07-20T01:03:06.554Z,82.35
2018-07-20T01:04:06.589Z,81.44
2018-07-20T01:05:06.592Z,80.87
2018-07-20T01:06:06.603Z,80.87
2018-07-20T01:07:06.644Z,80.29
2018-07-20T01:08:06.648Z,81.25
2018-07-20T01:09:06.666Z,80.58
2018-07-20T01:10:06.691Z,80.19
2018-07-20T01:11:06.712Z,80.38
2018-07-20T01:12:06.727Z,79.57
2018-07-20T01:13:06.747Z,78.61
2018-07-20T01:14:06.763Z,78.03
2018-07-20T01:15:06.786Z,77.94
2018-07-20T01:16:06.807Z,78.07
2018-07-20T01:17:06.820Z,77.40
2018-07-20T01:18:06.850Z,77.36
2018-07-20T01:19:06.861Z,78.55
2018-07-20T01:20:06.880Z,77.88
2018-07-20T01:21:06.903Z,77.59
2018-07-20T01:22:06.941Z,77.50
2018-07-20T01:23:06.943Z,77.02
2018-07-20T01:24:06.977Z,77.69
2018-07-20T01:25:06.978Z,77.40
2018-07-20T01:26:07.004Z,78.42
2018-07-20T01:27:07.017Z,78.03
2018-07-20T01:28:07.037Z,79.43
2018-07-20T01:29:07.055Z,80.48
2018-07-20T01:30:07.085Z,80.87
2018-07-20T01:31:07.103Z,81.30
2018-07-20T01:32:07.114Z,80.38
2018-07-20T01:33:07.139Z,80.63
2018-07-20T01:34:07.162Z,81.78
2018-07-20T01:35:07.186Z,82.74
2018-07-20T01:36:07.192Z,82.64
2018-07-20T01:37:07.215Z,82.45
2018-07-20T01:38:07.235Z,82.07
2018-07-20T01:39:07.252Z,82.17
2018-07-20T01:40:07.277Z,82.26
2018-07-20T01:41:07.297Z,81.30
2018-07-20T01:42:07.311Z,80.82
2018-07-20T01:43:07.336Z,81.30
2018-07-20T01:44:07.353Z,81.88
2018-07-20T01:45:07.385Z,81.88
2018-07-20T01:46:07.394Z,81.49
2018-07-20T01:47:07.411Z,81.97
2018-07-20T01:48:07.430Z,82.26
2018-07-20T01:49:07.452Z,82.93
2018-07-20T01:50:07.479Z,83.03
2018-07-20T01:51:07.485Z,82.93
2018-07-20T01:52:07.503Z,83.27
2018-07-20T01:53:07.526Z,83.31
2018-07-20T01:54:07.560Z,82.93
2018-07-20T01:55:07.564Z,82.45
2018-07-20T01:56:07.590Z,82.45
2018-07-20T01:57:07.607Z,81.97
2018-07-20T01:58:07.629Z,82.26
2018-07-20T01:59:07.644Z,82.07
2018-07-20T02:00:07.661Z,81.88
2018-07-20T02:01:07.685Z,81.49
2018-07-20T02:02:07.712Z,81.49
2018-07-20T02:03:07.721Z,81.88
2018-07-20T02:04:07.747Z,82.07
2018-07-20T02:05:07.759Z,83.37
2018-07-20T02:06:07.781Z,83.37
2018-07-20T02:07:07.792Z,83.84
2018-07-20T02:08:07.822Z,84.61
2018-07-20T02:09:07.834Z,84.70
2018-07-20T02:10:07.854Z,84.99
2018-07-20T02:11:07.889Z,84.32
2018-07-20T02:12:07.903Z,84.42
2018-07-20T02:13:07.917Z,84.32
2018-07-20T02:14:07.933Z,84.61
2018-07-20T02:15:07.966Z,84.32
2018-07-20T02:16:07.985Z,83.94
2018-07-20T02:17:07.997Z,84.32
2018-07-20T02:18:08.020Z,84.32
2018-07-20T02:19:08.025Z,83.56
2018-07-20T02:20:08.049Z,83.31
2018-07-20T02:21:08.065Z,82.17
2018-07-20T02:22:08.082Z,81.78
2018-07-20T02:23:08.105Z,81.59
2018-07-20T02:24:08.135Z,81.78
2018-07-20T02:25:08.142Z,81.97
2018-07-20T02:26:08.165Z,82.74
2018-07-20T02:27:08.182Z,82.79
2018-07-20T02:28:08.210Z,83.75
2018-07-20T02:29:08.224Z,84.13
2018-07-20T02:30:08.255Z,84.13
2018-07-20T02:31:08.266Z,84.61
2018-07-20T02:32:08.291Z,84.32
2018-07-20T02:33:08.301Z,84.32
2018-07-20T02:34:08.315Z,84.03
2018-07-20T02:35:08.342Z,84.23
2018-07-20T02:36:08.362Z,83.94
2018-07-20T02:37:08.379Z,84.99
2018-07-20T02:38:08.398Z,85.09
2018-07-20T02:39:08.411Z,85.57
2018-07-20T02:40:08.439Z,85.09
2018-07-20T02:41:08.468Z,85.28
2018-07-20T02:42:08.478Z,85.47
2018-07-20T02:43:08.489Z,85.38
2018-07-20T02:44:08.514Z,85.09
2018-07-20T02:45:08.538Z,84.42
2018-07-20T02:46:08.546Z,83.94
2018-07-20T02:47:08.565Z,83.12
2018-07-20T02:48:08.582Z,82.54
2018-07-20T02:49:08.609Z,82.07
2018-07-20T02:50:08.626Z,82.26
2018-07-20T02:51:08.648Z,81.59
2018-07-20T02:52:08.666Z,81.40
2018-07-20T02:53:08.686Z,80.87
2018-07-20T02:54:08.702Z,81.11
2018-07-20T02:55:08.732Z,81.02
2018-07-20T02:56:08.737Z,81.68
2018-07-20T02:57:08.767Z,82.17
2018-07-20T02:58:08.779Z,82.93
2018-07-20T02:59:08.800Z,82.54
2018-07-20T03:00:08.816Z,82.98
2018-07-20T03:01:08.832Z,83.37
2018-07-20T03:02:08.872Z,83.37
2018-07-20T03:03:08.872Z,82.79
2018-07-20T03:04:08.899Z,82.07
2018-07-20T03:05:08.913Z,81.74
2018-07-20T03:06:08.940Z,82.93
2018-07-20T03:07:08.956Z,82.26
2018-07-20T03:08:08.973Z,81.49
2018-07-20T03:09:09.005Z,81.59
2018-07-20T03:10:09.007Z,80.58
2018-07-20T03:11:09.028Z,80.44
2018-07-20T03:12:09.054Z,81.30
2018-07-20T03:13:09.070Z,82.35
2018-07-20T03:14:09.084Z,82.60
2018-07-20T03:15:09.102Z,83.56
2018-07-20T03:16:09.132Z,83.56
2018-07-20T03:17:09.145Z,84.23
2018-07-20T03:18:09.179Z,84.13
2018-07-20T03:19:09.183Z,84.42
2018-07-20T03:20:09.212Z,84.70
2018-07-20T03:21:09.266Z,84.42
2018-07-20T03:22:09.244Z,84.61
2018-07-20T03:23:09.268Z,85.09
2018-07-20T03:24:09.282Z,85.33
2018-07-20T03:25:09.300Z,85.38
2018-07-20T03:26:09.324Z,84.99
2018-07-20T03:27:09.345Z,83.84
2018-07-20T03:28:09.362Z,84.56
2018-07-20T03:29:09.382Z,84.70
2018-07-20T03:30:09.394Z,84.23
2018-07-20T03:31:09.420Z,84.61
2018-07-20T03:32:09.436Z,85.62
2018-07-20T03:33:09.452Z,85.90
2018-07-20T03:34:09.472Z,85.09
2018-07-20T03:35:09.497Z,85.33
2018-07-20T03:36:09.507Z,84.70
2018-07-20T03:37:09.526Z,83.56
2018-07-20T03:38:09.543Z,83.37
2018-07-20T03:39:09.576Z,83.37
2018-07-20T03:40:09.590Z,83.75
2018-07-20T03:41:09.614Z,84.23
2018-07-20T03:42:09.619Z,83.75
2018-07-20T03:43:09.660Z,82.79
2018-07-20T03:44:09.692Z,82.45
2018-07-20T03:45:09.677Z,81.78
2018-07-20T03:46:09.702Z,81.68
2018-07-20T03:47:09.719Z,81.78
2018-07-20T03:48:09.737Z,81.68
2018-07-20T03:49:09.777Z,82.35
2018-07-20T03:50:09.776Z,83.46
2018-07-20T03:51:09.807Z,83.75
2018-07-20T03:52:09.839Z,84.42
2018-07-20T03:53:09.851Z,84.27
2018-07-20T03:54:09.860Z,83.84
2018-07-20T03:55:09.875Z,84.61
2018-07-20T03:56:09.898Z,85.18
2018-07-20T03:57:09.937Z,85.28
2018-07-20T03:58:09.943Z,85.75
2018-07-20T03:59:09.948Z,85.38
2018-07-20T04:00:09.980Z,84.89
2018-07-20T04:01:09.995Z,84.61
2018-07-20T04:02:10.029Z,83.75
2018-07-20T04:03:10.033Z,84.42
2018-07-20T04:04:10.056Z,84.23
2018-07-20T04:05:10.066Z,84.13
2018-07-20T04:06:10.087Z,84.61
2018-07-20T04:07:10.119Z,83.22
2018-07-20T04:08:10.129Z,83.84
2018-07-20T04:09:10.195Z,83.12
2018-07-20T04:10:10.219Z,82.17
2018-07-20T04:11:10.190Z,82.35
2018-07-20T04:12:10.199Z,82.93
2018-07-20T04:13:10.221Z,83.12
2018-07-20T04:14:10.251Z,83.12
2018-07-20T04:15:10.258Z,82.64
2018-07-20T04:16:10.277Z,82.74
2018-07-20T04:17:10.299Z,82.54
2018-07-20T04:18:10.316Z,83.98
2018-07-20T04:19:10.350Z,82.97
2018-07-20T04:20:10.353Z,81.73
2018-07-20T04:21:10.371Z,81.25
2018-07-20T04:22:10.415Z,81.25
2018-07-20T04:23:10.412Z,80.38
2018-07-20T04:24:10.451Z,80.38
2018-07-20T04:25:10.465Z,81.63
2018-07-20T04:26:10.473Z,81.82
2018-07-20T04:27:10.495Z,82.83
2018-07-20T04:28:10.529Z,83.31
2018-07-20T04:29:10.529Z,82.74
2018-07-20T04:30:10.552Z,83.03
2018-07-20T04:31:10.571Z,82.78
2018-07-20T04:32:10.589Z,81.48
2018-07-20T04:33:10.617Z,80.33
2018-07-20T04:34:10.638Z,80.62
2018-07-20T04:35:10.656Z,80.24
2018-07-20T04:36:10.670Z,80.24
2018-07-20T04:37:10.702Z,80.43
2018-07-20T04:38:10.720Z,79.32
2018-07-20T04:39:10.742Z,79.70
2018-07-20T04:40:10.754Z,79.13
2018-07-20T04:41:10.782Z,77.92
2018-07-20T04:42:10.794Z,77.44
2018-07-20T04:43:10.808Z,77.44
2018-07-20T04:44:10.825Z,76.29
2018-07-20T04:45:10.854Z,75.75
2018-07-20T04:46:10.881Z,75.65
2018-07-20T04:47:10.888Z,77.25
2018-07-20T04:48:10.913Z,77.50
2018-07-20T04:49:10.935Z,79.13
2018-07-20T04:50:10.948Z,79.07
2018-07-20T04:51:10.970Z,78.78
2018-07-20T04:52:10.991Z,79.51
2018-07-20T04:53:11.018Z,79.51
2018-07-20T04:54:11.029Z,78.97
2018-07-20T04:55:11.053Z,79.64
2018-07-20T04:56:11.083Z,79.55
2018-07-20T04:57:11.091Z,79.26
2018-07-20T04:58:11.113Z,80.08
2018-07-20T04:59:11.151Z,80.22
2018-07-20T05:00:11.191Z,79.36
2018-07-20T05:01:11.199Z,79.55
2018-07-20T05:02:11.205Z,78.34
2018-07-20T05:03:11.210Z,76.37
2018-07-20T05:04:11.236Z,75.06
2018-07-20T05:05:11.256Z,74.58
2018-07-20T05:06:11.277Z,73.37
2018-07-20T05:07:11.344Z,72.86
2018-07-20T05:08:11.339Z,69.92
2018-07-20T05:09:11.346Z,68.67
2018-07-20T05:10:11.367Z,67.42
2018-07-20T05:11:11.394Z,67.87
2018-07-20T05:12:11.410Z,64.56
2018-07-20T05:13:11.440Z,64.15
2018-07-20T05:14:11.472Z,64.02
2018-07-20T05:15:11.476Z,64.21
2018-07-20T05:16:11.508Z,64.02
2018-07-20T05:17:11.537Z,64.66
2018-07-20T05:18:11.548Z,64.89
2018-07-20T05:19:11.570Z,65.08
2018-07-20T05:20:11.593Z,65.08
2018-07-20T05:21:11.614Z,64.43
2018-07-20T05:22:11.641Z,63.85
2018-07-20T05:23:11.675Z,63.38
2018-07-20T05:24:11.733Z,62.83
2018-07-20T05:25:11.711Z,62.32
2018-07-20T05:26:11.746Z,61.00
2018-07-20T05:27:11.758Z,60.61
2018-07-20T05:28:11.782Z,60.61
2018-07-20T05:29:11.815Z,61.00
2018-07-20T05:30:11.844Z,60.16
2018-07-20T05:31:11.885Z,59.23
2018-07-20T05:32:11.886Z,58.65
2018-07-20T05:33:11.914Z,58.75
2018-07-20T05:34:11.962Z,57.97
2018-07-20T05:35:11.964Z,58.65
2018-07-20T05:36:11.977Z,57.90
2018-07-20T05:37:12.008Z,56.87
2018-07-20T05:38:12.089Z,55.65
2018-07-20T05:39:12.059Z,54.51
2018-07-20T05:40:12.085Z,54.29
2018-07-20T05:41:12.106Z,54.29
2018-07-20T05:42:12.133Z,55.23
2018-07-20T05:43:12.166Z,55.26
2018-07-20T05:44:12.185Z,55.83
2018-07-20T05:45:12.203Z,56.48
2018-07-20T05:46:12.240Z,56.80
2018-07-20T05:47:12.255Z,56.39
2018-07-20T05:48:12.294Z,56.77
2018-07-20T05:49:12.310Z,56.77
2018-07-20T05:50:12.331Z,56.29
2018-07-20T05:51:12.366Z,55.19
2018-07-20T05:52:12.396Z,53.57
2018-07-20T05:53:12.412Z,52.89
2018-07-20T05:54:12.441Z,52.92
2018-07-20T05:55:12.486Z,51.88
2018-07-20T05:56:12.506Z,51.04
2018-07-20T05:57:12.523Z,51.10
2018-07-20T05:58:12.538Z,51.10
2018-07-20T05:59:12.571Z,50.02
2018-07-20T06:00:12.620Z,47.35
2018-07-20T06:01:12.621Z,46.60
2018-07-20T06:02:12.653Z,48.37
2018-07-20T06:03:12.680Z,49.51
2018-07-20T06:04:12.698Z,49.77
2018-07-20T06:05:12.749Z,50.84
2018-07-20T06:06:12.758Z,51.32
2018-07-20T06:07:12.785Z,50.84
2018-07-20T06:08:12.823Z,51.59
2018-07-20T06:09:12.837Z,51.50
2018-07-20T06:10:12.867Z,50.84
2018-07-20T06:11:12.897Z,50.12
2018-07-20T06:12:12.914Z,48.42
2018-07-20T06:13:12.957Z,48.30
2018-07-20T06:14:13.065Z,49.54
2018-07-20T06:15:12.993Z,50.31
2018-07-20T06:16:13.028Z,49.92
2018-07-20T06:17:13.046Z,48.61
2018-07-20T06:18:13.091Z,47.66
2018-07-20T06:19:13.108Z,48.13
2018-07-20T06:20:13.128Z,47.40
2018-07-20T06:21:13.163Z,46.79
2018-07-20T06:22:13.186Z,46.25
2018-07-20T06:23:13.213Z,45.67
2018-07-20T06:24:13.242Z,47.38
2018-07-20T06:25:13.275Z,48.05
2018-07-20T06:26:13.308Z,48.73
2018-07-20T06:27:13.325Z,47.40
2018-07-20T06:28:13.366Z,46.18
2018-07-20T06:29:13.392Z,46.30
2018-07-20T06:30:13.418Z,44.03
2018-07-20T06:31:13.439Z,43.81
2018-07-20T06:32:13.468Z,43.43
2018-07-20T06:33:13.504Z,43.33
2018-07-20T06:34:13.526Z,43.89
2018-07-20T06:35:13.549Z,43.40
2018-07-20T06:36:13.576Z,43.33
2018-07-20T06:37:13.612Z,42.74
2018-07-20T06:38:13.650Z,42.66
2018-07-20T06:39:13.679Z,42.47
2018-07-20T06:40:13.698Z,42.55
2018-07-20T06:41:13.722Z,43.30
2018-07-20T06:42:13.751Z,42.06
2018-07-20T06:43:13.778Z,42.00
2018-07-20T06:44:13.805Z,41.19
2018-07-20T06:45:13.840Z,40.64
2018-07-20T06:46:13.874Z,40.21
2018-07-20T06:47:13.894Z,41.28
2018-07-20T06:48:13.933Z,40.95
2018-07-20T06:49:13.955Z,40.75
2018-07-20T06:50:13.979Z,40.56
2018-07-20T06:51:14.014Z,41.13
2018-07-20T06:52:14.039Z,41.71
2018-07-20T06:53:14.088Z,42.19
2018-07-20T06:54:14.103Z,40.73
2018-07-20T06:55:14.122Z,38.09
2018-07-20T06:56:14.157Z,38.77
2018-07-20T06:57:14.181Z,41.22
2018-07-20T06:58:14.217Z,42.58
2018-07-20T06:59:14.243Z,42.45
2018-07-20T07:00:14.286Z,39.88
2018-07-20T07:01:14.293Z,38.81
2018-07-20T07:02:14.341Z,37.89
2018-07-20T07:03:14.349Z,35.91
2018-07-20T07:04:14.387Z,33.98
2018-07-20T07:05:14.413Z,34.70
2018-07-20T07:06:14.438Z,37.21
2018-07-20T07:07:14.474Z,38.77
2018-07-20T07:08:14.494Z,39.45
2018-07-20T07:09:14.522Z,40.88
2018-07-20T07:10:14.544Z,41.73
2018-07-20T07:11:14.574Z,40.99
2018-07-20T07:12:14.601Z,39.86
2018-07-20T07:13:14.629Z,39.08
2018-07-20T07:14:14.659Z,39.26
2018-07-20T07:15:14.789Z,39.76
2018-07-20T07:16:14.714Z,38.73
2018-07-20T07:17:14.738Z,38.57
2018-07-20T07:18:14.778Z,35.32
2018-07-20T07:19:14.796Z,33.58
2018-07-20T07:20:14.838Z,33.00
2018-07-20T07:21:14.858Z,32.06
2018-07-20T07:22:14.899Z,32.46
2018-07-20T07:23:14.919Z,31.41
2018-07-20T07:24:14.953Z,30.55
2018-07-20T07:25:14.976Z,30.12
2018-07-20T07:26:14.997Z,30.43
2018-07-20T07:27:15.040Z,30.55
2018-07-20T07:28:15.065Z,29.83
2018-07-20T07:29:15.125Z,30.71
2018-07-20T07:30:15.120Z,31.10
2018-07-20T07:31:15.153Z,31.58
2018-07-20T07:32:15.180Z,32.06
2018-07-20T07:33:15.206Z,31.76
2018-07-20T07:34:15.232Z,31.20
2018-07-20T07:35:15.272Z,31.10
2018-07-20T07:36:15.303Z,30.93
2018-07-20T07:37:15.321Z,31.10
2018-07-20T07:38:15.391Z,32.82
2018-07-20T07:39:15.375Z,33.51
2018-07-20T07:40:15.406Z,33.31
2018-07-20T07:41:15.437Z,34.41
2018-07-20T07:42:15.505Z,35.11
2018-07-20T07:43:15.485Z,35.13
2018-07-20T07:44:15.526Z,35.58
2018-07-20T07:45:15.553Z,35.74
2018-07-20T07:46:15.589Z,36.15
2018-07-20T07:47:15.625Z,35.13
2018-07-20T07:48:15.634Z,35.13
2018-07-20T07:49:15.699Z,35.48
2018-07-20T07:50:15.689Z,34.67
2018-07-20T07:51:15.723Z,33.79
2018-07-20T07:52:15.777Z,34.20
2018-07-20T07:53:15.777Z,33.14
2018-07-20T07:54:15.814Z,34.20
2018-07-20T07:55:15.838Z,33.43
2018-07-20T07:56:15.872Z,31.99
2018-07-20T07:57:15.899Z,30.84
2018-07-20T07:58:15.928Z,30.45
2018-07-20T07:59:15.963Z,29.85
2018-07-20T08:00:16.002Z,31.22
2018-07-20T08:01:16.018Z,30.40
2018-07-20T08:02:16.044Z,31.16
2018-07-20T08:03:16.129Z,32.15
2018-07-20T08:04:16.117Z,31.29
2018-07-20T08:05:16.145Z,30.65
2018-07-20T08:06:16.165Z,29.69
2018-07-20T08:07:16.193Z,29.19
2018-07-20T08:08:16.236Z,29.69
2018-07-20T08:09:16.266Z,29.77
2018-07-20T08:10:16.319Z,29.61
2018-07-20T08:11:16.310Z,30.94
2018-07-20T08:12:16.352Z,31.99
2018-07-20T08:13:16.370Z,30.53
2018-07-20T08:14:16.405Z,30.08
2018-07-20T08:15:16.431Z,30.11
2018-07-20T08:16:16.457Z,29.71
2018-07-20T08:17:16.501Z,29.59
2018-07-20T08:18:16.647Z,29.51
2018-07-20T08:19:16.556Z,29.28
2018-07-20T08:20:16.576Z,28.99
2018-07-20T08:21:16.612Z,31.67
2018-07-20T08:22:16.641Z,30.91
2018-07-20T08:23:16.667Z,31.32
2018-07-20T08:24:16.700Z,29.69
2018-07-20T08:25:16.716Z,31.02
2018-07-20T08:26:16.746Z,31.38
2018-07-20T08:27:16.776Z,31.45
2018-07-20T08:28:16.806Z,32.51
2018-07-20T08:29:16.844Z,33.48
2018-07-20T08:30:16.861Z,34.44
2018-07-20T08:31:16.894Z,33.87
2018-07-20T08:32:16.926Z,32.07
2018-07-20T08:33:16.957Z,31.68
2018-07-20T08:34:16.982Z,31.17
2018-07-20T08:35:17.004Z,30.93
2018-07-20T08:36:17.039Z,29.85
2018-07-20T08:37:17.064Z,29.62
2018-07-20T08:38:17.091Z,31.14
2018-07-20T08:39:17.113Z,31.93
2018-07-20T08:40:17.157Z,33.29
2018-07-20T08:41:17.294Z,31.76
2018-07-20T08:42:17.220Z,30.81
2018-07-20T08:43:17.237Z,29.83
2018-07-20T08:44:17.254Z,31.74
2018-07-20T08:45:17.293Z,32.06
2018-07-20T08:46:17.317Z,32.92
2018-07-20T08:47:17.341Z,33.56
2018-07-20T08:48:17.365Z,33.46
2018-07-20T08:49:17.403Z,34.36
2018-07-20T08:50:17.437Z,34.13
2018-07-20T08:51:17.448Z,35.30
2018-07-20T08:52:17.498Z,34.36
2018-07-20T08:53:17.500Z,33.29
2018-07-20T08:54:17.537Z,33.18
2018-07-20T08:55:17.573Z,32.40
2018-07-20T08:56:17.579Z,32.78
2018-07-20T08:57:17.616Z,33.95
2018-07-20T08:58:17.633Z,31.04
2018-07-20T08:59:17.664Z,31.04
2018-07-20T09:00:17.693Z,31.32
2018-07-20T09:01:17.713Z,33.34
2018-07-20T09:02:17.740Z,32.97
2018-07-20T09:03:17.773Z,33.54
2018-07-20T09:04:17.796Z,33.72
2018-07-20T09:05:17.820Z,32.52
2018-07-20T09:06:17.877Z,34.38
2018-07-20T09:07:17.893Z,35.22
2018-07-20T09:08:17.902Z,35.51
2018-07-20T09:09:17.929Z,35.22
2018-07-20T09:10:17.969Z,35.33
2018-07-20T09:11:17.991Z,35.06
2018-07-20T09:12:18.005Z,35.43
2018-07-20T09:13:18.038Z,35.12
2018-07-20T09:14:18.061Z,36.10
2018-07-20T09:15:18.104Z,37.35
2018-07-20T09:16:18.112Z,36.00
2018-07-20T09:17:18.173Z,36.58
2018-07-20T09:18:18.165Z,36.19
2018-07-20T09:19:18.214Z,36.27
2018-07-20T09:20:18.217Z,37.45
2018-07-20T09:21:18.281Z,37.35
2018-07-20T09:22:18.300Z,37.05
2018-07-20T09:23:18.296Z,35.98
2018-07-20T09:24:18.348Z,36.00
2018-07-20T09:25:18.348Z,35.82
2018-07-20T09:26:18.368Z,35.35
2018-07-20T09:27:18.396Z,36.02
2018-07-20T09:28:18.420Z,35.43
2018-07-20T09:29:18.442Z,35.31
2018-07-20T09:30:18.470Z,36.10
2018-07-20T09:31:18.494Z,35.80
2018-07-20T09:32:18.530Z,36.94
2018-07-20T09:33:18.562Z,37.05
2018-07-20T09:34:18.598Z,35.53
2018-07-20T09:35:18.598Z,35.53
2018-07-20T09:36:18.627Z,35.82
2018-07-20T09:37:18.652Z,35.61
2018-07-20T09:38:18.681Z,34.92
2018-07-20T09:39:18.709Z,34.53
2018-07-20T09:40:18.727Z,33.56
2018-07-20T09:41:18.756Z,33.58
2018-07-20T09:42:18.780Z,33.22
2018-07-20T09:43:18.807Z,31.51
2018-07-20T09:44:18.865Z,30.64
2018-07-20T09:45:18.890Z,31.46
2018-07-20T09:46:18.896Z,32.62
2018-07-20T09:47:18.903Z,31.84
2018-07-20T09:48:18.931Z,32.31
2018-07-20T09:49:18.951Z,32.82
2018-07-20T09:50:18.984Z,32.92
2018-07-20T09:51:19.012Z,32.45
2018-07-20T09:52:19.036Z,32.43
2018-07-20T09:53:19.059Z,32.24
2018-07-20T09:54:19.088Z,31.96
2018-07-20T09:55:19.107Z,31.77
2018-07-20T09:56:19.146Z,31.95
2018-07-20T09:57:19.162Z,31.08
2018-07-20T09:58:19.198Z,30.74
2018-07-20T09:59:19.212Z,31.05
2018-07-20T10:00:19.245Z,29.98
2018-07-20T10:01:19.280Z,30.49
2018-07-20T10:02:19.285Z,31.48
2018-07-20T10:03:19.329Z,30.61
2018-07-20T10:04:19.340Z,30.79
2018-07-20T10:05:19.384Z,31.08
2018-07-20T10:06:19.397Z,29.71
2018-07-20T10:07:19.418Z,29.80
2018-07-20T10:08:19.449Z,29.71
2018-07-20T10:09:19.471Z,29.44
2018-07-20T10:10:19.498Z,28.43
2018-07-20T10:11:19.533Z,29.71
2018-07-20T10:12:19.553Z,28.44
2018-07-20T10:13:19.573Z,28.05
2018-07-20T10:14:19.598Z,28.47
2018-07-20T10:15:19.626Z,29.06
2018-07-20T10:16:19.648Z,28.40
2018-07-20T10:17:19.676Z,26.56
2018-07-20T10:18:19.705Z,26.06
2018-07-20T10:19:19.729Z,27.50
2018-07-20T10:20:19.759Z,27.87
2018-07-20T10:21:19.777Z,28.25
2018-07-20T10:22:19.808Z,28.44
2018-07-20T10:23:19.836Z,29.90
2018-07-20T10:24:19.867Z,30.00
2018-07-20T10:25:19.886Z,29.53
2018-07-20T10:26:19.912Z,28.06
2018-07-20T10:27:19.950Z,28.44
2018-07-20T10:28:19.962Z,27.56
2018-07-20T10:29:20.013Z,28.83
2018-07-20T10:30:20.021Z,28.34
2018-07-20T10:31:20.039Z,27.95
2018-07-20T10:32:20.080Z,28.23
2018-07-20T10:33:20.100Z,27.75
2018-07-20T10:34:20.116Z,28.74
2018-07-20T10:35:20.145Z,27.76
2018-07-20T10:36:20.180Z,28.53
2018-07-20T10:37:20.215Z,29.22
2018-07-20T10:38:20.224Z,28.34
2018-07-20T10:39:20.246Z,28.34
2018-07-20T10:40:20.270Z,29.41
2018-07-20T10:41:20.305Z,28.32
2018-07-20T10:42:20.334Z,29.02
2018-07-20T10:43:20.348Z,28.54
2018-07-20T10:44:20.399Z,27.64
2018-07-20T10:45:20.411Z,28.42
2018-07-20T10:46:20.458Z,29.69
2018-07-20T10:47:20.460Z,30.06
2018-07-20T10:48:20.476Z,29.88
2018-07-20T10:49:20.521Z,30.57
2018-07-20T10:50:20.533Z,29.60
2018-07-20T10:51:20.559Z,31.15
2018-07-20T10:52:20.607Z,30.65
2018-07-20T10:53:20.611Z,29.50
2018-07-20T10:54:20.634Z,28.26
2018-07-20T10:55:20.662Z,29.42
2018-07-20T10:56:20.708Z,29.79
2018-07-20T10:57:20.705Z,29.49
2018-07-20T10:58:20.743Z,30.66
2018-07-20T10:59:20.761Z,29.79
2018-07-20T11:00:20.796Z,29.56
2018-07-20T11:01:20.874Z,29.88
2018-07-20T11:02:20.845Z,29.31
2018-07-20T11:03:20.858Z,28.53
2018-07-20T11:04:20.894Z,27.28
2018-07-20T11:05:20.918Z,27.95
2018-07-20T11:06:20.947Z,29.32
2018-07-20T11:07:20.963Z,29.13
2018-07-20T11:08:21.002Z,28.26
2018-07-20T11:09:21.030Z,28.16
2018-07-20T11:10:21.046Z,28.36
2018-07-20T11:11:21.066Z,27.97
2018-07-20T11:12:21.099Z,29.14
2018-07-20T11:13:21.131Z,27.98
2018-07-20T11:14:21.139Z,27.29
2018-07-20T11:15:21.189Z,28.45
2018-07-20T11:16:21.208Z,26.99
2018-07-20T11:17:21.235Z,27.48
2018-07-20T11:18:21.247Z,26.42
2018-07-20T11:19:21.273Z,26.61
2018-07-20T11:20:21.342Z,26.98
2018-07-20T11:21:21.328Z,27.39
2018-07-20T11:22:21.348Z,26.44
2018-07-20T11:23:21.379Z,26.09
2018-07-20T11:24:21.404Z,25.33
2018-07-20T11:25:21.430Z,24.05
2018-07-20T11:26:21.455Z,23.28
2018-07-20T11:27:21.484Z,23.47
2018-07-20T11:28:21.506Z,23.29
2018-07-20T11:29:21.541Z,23.38
2018-07-20T11:30:21.561Z,24.22
2018-07-20T11:31:21.584Z,24.32
2018-07-20T11:32:21.623Z,24.42
2018-07-20T11:33:21.638Z,24.70
2018-07-20T11:34:21.667Z,24.42
2018-07-20T11:35:21.707Z,24.63
2018-07-20T11:36:21.737Z,23.65
2018-07-20T11:37:21.746Z,23.65
2018-07-20T11:38:21.792Z,24.41
2018-07-20T11:39:21.807Z,24.80
2018-07-20T11:40:21.827Z,24.79
2018-07-20T11:41:21.858Z,25.27
2018-07-20T11:42:21.889Z,26.33
2018-07-20T11:43:21.916Z,25.68
2018-07-20T11:44:21.935Z,26.64
2018-07-20T11:45:21.957Z,26.06
2018-07-20T11:46:21.987Z,26.44
2018-07-20T11:47:22.022Z,27.58
2018-07-20T11:48:22.043Z,28.36
2018-07-20T11:49:22.071Z,27.78
2018-07-20T11:50:22.107Z,27.39
2018-07-20T11:51:22.145Z,26.99
2018-07-20T11:52:22.177Z,27.67
2018-07-20T11:53:22.187Z,26.53
2018-07-20T11:54:22.198Z,26.81
2018-07-20T11:55:22.228Z,27.19
2018-07-20T11:56:22.257Z,27.75
2018-07-20T11:57:22.282Z,27.77
2018-07-20T11:58:22.305Z,26.71
2018-07-20T11:59:22.338Z,26.82
2018-07-20T12:00:22.354Z,26.83
2018-07-20T12:01:22.407Z,26.15
2018-07-20T12:02:22.412Z,26.42
2018-07-20T12:03:22.431Z,26.90
2018-07-20T12:04:22.465Z,26.99
2018-07-20T12:05:22.486Z,27.00
2018-07-20T12:06:22.518Z,26.44
2018-07-20T12:07:22.546Z,25.96
2018-07-20T12:08:22.564Z,25.49
2018-07-20T12:09:22.591Z,25.77
2018-07-20T12:10:22.620Z,25.78
2018-07-20T12:11:22.644Z,26.53
2018-07-20T12:12:22.673Z,26.81
2018-07-20T12:13:22.694Z,26.53
2018-07-20T12:14:22.733Z,26.62
2018-07-20T12:15:22.748Z,26.34
2018-07-20T12:16:22.780Z,25.95
2018-07-20T12:17:22.802Z,25.68
2018-07-20T12:18:22.837Z,25.01
2018-07-20T12:19:22.849Z,24.24
2018-07-20T12:20:22.874Z,23.85
2018-07-20T12:21:22.903Z,23.86
2018-07-20T12:22:22.937Z,23.83
2018-07-20T12:23:22.960Z,25.29
2018-07-20T12:24:22.977Z,25.67
2018-07-20T12:25:23.006Z,24.31
2018-07-20T12:26:23.033Z,25.20
2018-07-20T12:27:23.057Z,24.80
2018-07-20T12:28:23.088Z,24.22
2018-07-20T12:29:23.111Z,24.42
2018-07-20T12:30:23.135Z,23.94
2018-07-20T12:31:23.172Z,24.24
2018-07-20T12:32:23.191Z,24.04
2018-07-20T12:33:23.235Z,24.52
2018-07-20T12:34:23.243Z,25.40
2018-07-20T12:35:23.282Z,25.87
2018-07-20T12:36:23.298Z,26.67
2018-07-20T12:37:23.331Z,25.42
2018-07-20T12:38:23.360Z,24.43
2018-07-20T12:39:23.394Z,24.54
2018-07-20T12:40:23.405Z,24.81
2018-07-20T12:41:23.429Z,25.59
2018-07-20T12:42:23.455Z,25.17
2018-07-20T12:43:23.497Z,26.54
2018-07-20T12:44:23.512Z,26.07
2018-07-20T12:45:23.541Z,25.98
2018-07-20T12:46:23.580Z,26.16
2018-07-20T12:47:23.619Z,25.85
2018-07-20T12:48:23.629Z,26.06
2018-07-20T12:49:23.649Z,25.87
2018-07-20T12:50:23.686Z,25.87
2018-07-20T12:51:23.700Z,26.26
2018-07-20T12:52:23.723Z,25.76